Time;durP1;ratioP1;P1;durP2;ratioP2;P2;SDS_P1;SDS_P2;PMS_P1;PMS_P2;Temp;Humidity;BMP_temperature;BMP_pressure;BME280_temperature;BME280_humidity;BME280_pressure;Samples;Min_cycle;Max_cycle;Signal;HPM_P1;HPM_P2
2023/11/30 00:00:59;;;;;;;21.30;10.30;;;;;;;-4.77;69.41;98580.66;106520;1257;1003347;-37
2023/11/30 00:03:27;;;;;;;23.70;12.30;;;;;;;-4.74;69.44;98578.79;107264;1257;73832;-37
2023/11/30 00:05:55;;;;;;;23.30;11.70;;;;;;;-4.78;69.32;98583.98;106502;1257;1002882;-37
2023/11/30 00:08:23;;;;;;;20.30;10.90;;;;;;;-4.80;69.22;98591.73;107264;1257;71378;-37
2023/11/30 00:10:50;;;;;;;23.10;11.60;;;;;;;-4.82;69.37;98599.25;107321;1257;59219;-37
2023/11/30 00:13:18;;;;;;;21.50;11.50;;;;;;;-4.85;69.36;98597.11;107232;1257;60425;-36
2023/11/30 00:15:45;;;;;;;19.60;11.50;;;;;;;-4.79;69.18;98606.73;107129;1258;73804;-37
2023/11/30 00:18:14;;;;;;;22.90;11.70;;;;;;;-4.75;69.11;98602.12;106546;1257;1002867;-37
2023/11/30 00:20:42;;;;;;;22.40;11.20;;;;;;;-4.77;69.01;98606.03;107262;1260;72668;-37
2023/11/30 00:23:09;;;;;;;20.70;10.70;;;;;;;-4.80;69.22;98613.47;107191;1260;60313;-38
2023/11/30 00:25:37;;;;;;;21.30;11.30;;;;;;;-4.85;69.24;98610.16;107365;1258;59225;-37
2023/11/30 00:28:04;;;;;;;23.70;12.60;;;;;;;-4.87;69.37;98617.33;107230;1257;72668;-37
2023/11/30 00:30:32;;;;;;;21.20;11.10;;;;;;;-4.86;69.58;98623.55;107257;1257;66361;-37
2023/11/30 00:32:59;;;;;;;20.40;11.10;;;;;;;-4.78;69.31;98624.34;107232;1256;72731;-38
2023/11/30 00:35:27;;;;;;;19.90;9.80;;;;;;;-4.77;69.11;98625.92;107052;1257;60336;-36
2023/11/30 00:37:56;;;;;;;23.20;11.70;;;;;;;-4.80;69.06;98630.02;107050;1257;60339;-37
2023/11/30 00:40:23;;;;;;;18.70;10.80;;;;;;;-4.84;69.29;98632.85;107237;1260;72977;-37
2023/11/30 00:42:51;;;;;;;21.00;12.20;;;;;;;-4.87;69.32;98632.82;107259;1257;65330;-37
2023/11/30 00:45:18;;;;;;;19.90;10.60;;;;;;;-4.90;69.36;98632.00;107049;1256;72634;-37
2023/11/30 00:47:46;;;;;;;20.80;10.50;;;;;;;-4.91;69.38;98634.33;107087;1257;60632;-36
2023/11/30 00:50:14;;;;;;;21.70;11.20;;;;;;;-4.84;69.21;98635.65;107139;1257;59322;-37
2023/11/30 00:52:41;;;;;;;20.20;11.40;;;;;;;-4.80;69.24;98635.68;107026;1258;72580;-37
2023/11/30 00:55:09;;;;;;;19.60;10.80;;;;;;;-4.83;69.38;98639.23;106487;1257;1003527;-37
2023/11/30 00:57:37;;;;;;;21.10;11.60;;;;;;;-4.85;69.42;98648.83;107228;1257;71435;-37
2023/11/30 01:00:08;;;;;;;21.90;11.30;;;;;;;-4.89;69.54;98646.09;107228;1257;60466;-37
2023/11/30 01:02:37;;;;;;;20.30;10.50;;;;;;;-4.92;69.56;98649.46;107316;1256;60434;-37
2023/11/30 01:05:06;;;;;;;21.30;11.50;;;;;;;-4.92;69.49;98650.83;107230;1260;73855;-36
2023/11/30 01:07:35;;;;;;;22.20;10.60;;;;;;;-4.84;69.56;98651.89;107315;1255;66318;-36
2023/11/30 01:10:04;;;;;;;20.80;12.00;;;;;;;-4.83;69.47;98657.41;107298;1257;72676;-37
2023/11/30 01:12:33;;;;;;;21.30;11.40;;;;;;;-4.86;69.51;98658.14;107278;1257;60590;-37
2023/11/30 01:15:01;;;;;;;24.00;11.50;;;;;;;-4.89;69.62;98657.93;107109;1257;60396;-37
2023/11/30 01:17:28;;;;;;;18.80;10.70;;;;;;;-4.91;69.36;98662.41;107155;1257;72883;-36
2023/11/30 01:19:57;;;;;;;23.70;12.10;;;;;;;-4.94;69.51;98665.11;107137;1257;67223;-36
2023/11/30 01:22:24;;;;;;;20.60;10.60;;;;;;;-4.93;69.49;98671.77;107178;1257;72626;-36
2023/11/30 01:24:52;;;;;;;21.10;11.60;;;;;;;-4.86;69.59;98670.98;106431;1258;1003294;-36
2023/11/30 01:27:20;;;;;;;23.60;11.10;;;;;;;-4.85;69.40;98673.52;107264;1257;60293;-37
2023/11/30 01:29:49;;;;;;;22.10;11.30;;;;;;;-4.88;69.38;98678.45;107228;1257;72672;-36
2023/11/30 01:32:19;;;;;;;20.80;11.70;;;;;;;-4.91;69.79;98683.40;107212;1257;67606;-36
2023/11/30 01:34:46;;;;;;;23.70;12.00;;;;;;;-4.93;70.03;98687.20;107253;1257;72702;-36
2023/11/30 01:37:14;;;;;;;21.70;12.40;;;;;;;-4.95;70.17;98691.82;107211;1257;60531;-37
2023/11/30 01:39:42;;;;;;;20.40;11.30;;;;;;;-4.97;70.14;98690.93;107173;1256;60641;-37
2023/11/30 01:42:09;;;;;;;20.50;11.20;;;;;;;-4.90;70.33;98690.20;107253;1256;72612;-37
2023/11/30 01:44:37;;;;;;;24.60;12.70;;;;;;;-4.85;70.26;98688.95;107253;1257;67547;-36
2023/11/30 01:47:04;;;;;;;22.10;11.80;;;;;;;-4.87;70.52;98694.09;107255;1257;73144;-37
2023/11/30 01:49:32;;;;;;;25.30;13.50;;;;;;;-4.89;70.71;98697.70;107260;1256;60430;-37
2023/11/30 01:52:00;;;;;;;25.00;13.50;;;;;;;-4.92;70.97;98699.52;106573;1257;1003626;-37
2023/11/30 01:54:28;;;;;;;24.70;13.50;;;;;;;-4.93;71.02;98701.01;107029;1257;71656;-37
2023/11/30 01:56:55;;;;;;;21.10;12.20;;;;;;;-4.93;71.19;98705.66;106539;1260;1002588;-38
2023/11/30 01:59:23;;;;;;;20.00;12.20;;;;;;;-4.90;71.12;98708.39;106446;1256;1003706;-37
2023/11/30 02:01:50;;;;;;;23.50;12.80;;;;;;;-4.82;71.24;98710.61;107020;1257;60965;-37
2023/11/30 02:04:18;;;;;;;20.70;12.60;;;;;;;-4.78;71.07;98713.27;107072;1257;60441;-37
2023/11/30 02:06:46;;;;;;;21.70;12.20;;;;;;;-4.79;71.34;98712.61;106457;1257;1003098;-37
2023/11/30 02:09:13;;;;;;;21.30;12.60;;;;;;;-4.83;71.54;98719.13;106539;1256;1002881;-37
2023/11/30 02:11:42;;;;;;;24.90;13.30;;;;;;;-4.87;71.65;98714.66;107161;1257;71548;-37
2023/11/30 02:14:09;;;;;;;23.10;11.70;;;;;;;-4.88;71.90;98716.09;107147;1257;59569;-37
2023/11/30 02:16:38;;;;;;;25.40;12.90;;;;;;;-4.88;71.85;98720.49;107203;1255;60432;-37
2023/11/30 02:19:06;;;;;;;20.80;12.40;;;;;;;-4.81;71.75;98728.00;107072;1256;73826;-37
2023/11/30 02:21:33;;;;;;;21.40;12.30;;;;;;;-4.75;71.74;98730.67;107179;1257;66313;-37
2023/11/30 02:24:01;;;;;;;24.10;13.30;;;;;;;-4.76;71.67;98734.32;107082;1257;72682;-37
2023/11/30 02:26:29;;;;;;;22.70;12.80;;;;;;;-4.78;71.79;98740.66;107216;1256;60327;-37
2023/11/30 02:28:57;;;;;;;25.10;14.10;;;;;;;-4.79;71.94;98741.21;107225;1256;60414;-37
2023/11/30 02:31:24;;;;;;;23.00;12.20;;;;;;;-4.81;71.87;98739.21;107185;1257;72614;-37
2023/11/30 02:33:52;;;;;;;26.70;13.30;;;;;;;-4.82;72.00;98743.50;107124;1256;67571;-37
2023/11/30 02:36:19;;;;;;;21.40;12.40;;;;;;;-4.77;72.05;98742.41;107082;1254;72479;-37
2023/11/30 02:38:47;;;;;;;21.50;12.20;;;;;;;-4.68;71.63;98743.89;107193;1257;60785;-37
2023/11/30 02:41:16;;;;;;;24.60;13.20;;;;;;;-4.68;71.45;98746.79;107264;1254;60444;-37
2023/11/30 02:43:44;;;;;;;21.10;12.20;;;;;;;-4.70;71.61;98752.52;106510;1254;1003213;-37
2023/11/30 02:46:12;;;;;;;21.00;12.20;;;;;;;-4.73;71.58;98754.83;107310;1254;66746;-37
2023/11/30 02:48:40;;;;;;;22.30;13.00;;;;;;;-4.76;71.75;98752.92;107384;1254;72780;-37
2023/11/30 02:51:10;;;;;;;26.70;12.70;;;;;;;-4.78;71.62;98757.86;107314;1256;60524;-37
2023/11/30 02:53:37;;;;;;;;;;;;;;;-4.82;71.70;98760.42;107261;1260;60422;-37
2023/11/30 02:56:05;;;;;;;23.90;13.40;;;;;;;-4.78;71.62;98764.21;107268;1260;73859;-37
2023/11/30 02:58:33;;;;;;;29.20;16.20;;;;;;;-4.75;71.32;98766.36;107291;1256;67627;-37
2023/11/30 03:01:02;;;;;;;30.20;16.90;;;;;;;-4.77;71.17;98764.30;106475;1257;1003260;-37
2023/11/30 03:03:29;;;;;;;31.00;16.70;;;;;;;-4.82;71.28;98765.97;107247;1256;60471;-37
2023/11/30 03:05:57;;;;;;;30.50;17.30;;;;;;;-4.87;71.35;98767.70;107241;1256;60466;-37
2023/11/30 03:08:25;;;;;;;31.00;17.10;;;;;;;-4.95;71.61;98762.19;107230;1256;73840;-37
2023/11/30 03:10:53;;;;;;;25.40;14.30;;;;;;;-4.96;71.80;98767.59;107243;1257;66641;-38
2023/11/30 03:13:20;;;;;;;27.30;15.80;;;;;;;-4.96;71.97;98771.02;107178;1257;71400;-38
2023/11/30 03:15:48;;;;;;;25.00;13.80;;;;;;;-4.91;71.87;98765.43;107248;1257;60547;-38
2023/11/30 03:18:16;;;;;;;22.00;11.90;;;;;;;-4.86;71.92;98764.31;107272;1258;60264;-38
2023/11/30 03:20:44;;;;;;;20.20;12.80;;;;;;;-4.88;71.92;98764.68;107244;1257;73875;-38
2023/11/30 03:23:11;;;;;;;23.00;13.70;;;;;;;-4.93;72.12;98762.44;107241;1260;67915;-37
2023/11/30 03:25:40;;;;;;;23.00;13.10;;;;;;;-4.98;72.08;98763.84;107230;1256;72647;-38
2023/11/30 03:28:07;;;;;;;21.70;12.10;;;;;;;-5.03;72.12;98756.10;107283;1256;60286;-38
2023/11/30 03:30:35;;;;;;;23.10;11.50;;;;;;;-5.03;72.32;98757.11;107097;1257;60472;-38
2023/11/30 03:33:02;;;;;;;20.10;10.90;;;;;;;-4.96;72.18;98756.13;107103;1256;73835;-37
2023/11/30 03:35:30;;;;;;;20.80;11.50;;;;;;;-4.96;72.03;98759.13;107142;1256;66593;-37
2023/11/30 03:37:58;;;;;;;20.90;12.00;;;;;;;-5.01;72.10;98760.48;106323;1260;1003072;-37
2023/11/30 03:40:25;;;;;;;25.40;11.70;;;;;;;-5.07;72.20;98761.30;107088;1258;60535;-37
2023/11/30 03:42:53;;;;;;;20.10;11.20;;;;;;;-5.11;72.25;98755.98;106470;1256;1003079;-37
2023/11/30 03:45:21;;;;;;;23.20;12.00;;;;;;;-5.13;72.43;98762.64;107226;1259;72624;-37
2023/11/30 03:47:49;;;;;;;19.60;10.80;;;;;;;-5.08;72.37;98760.52;107164;1256;67753;-37
2023/11/30 03:50:17;;;;;;;20.70;11.40;;;;;;;-5.02;72.26;98763.38;107140;1258;72658;-37
2023/11/30 03:52:44;;;;;;;18.50;11.00;;;;;;;-5.02;72.41;98763.70;107241;1256;59657;-37
2023/11/30 03:55:13;;;;;;;21.30;11.90;;;;;;;-5.08;72.44;98766.11;107276;1255;60296;-37
2023/11/30 03:57:41;;;;;;;20.80;11.60;;;;;;;-5.13;72.42;98764.09;107314;1256;73975;-37
2023/11/30 04:00:12;;;;;;;21.60;12.00;;;;;;;-5.18;72.56;98764.95;106516;1257;1003821;-37
2023/11/30 04:02:41;;;;;;;21.50;11.80;;;;;;;-5.22;72.70;98766.55;107277;1256;71414;-37
2023/11/30 04:05:13;;;;;;;20.10;11.10;;;;;;;-5.18;72.61;98769.60;107231;1257;61749;-37
2023/11/30 04:07:41;;;;;;;19.70;11.20;;;;;;;-5.11;72.52;98769.03;107279;1256;60465;-37
2023/11/30 04:10:12;;;;;;;18.90;10.30;;;;;;;-5.13;72.39;98773.69;107291;1256;74111;-37
2023/11/30 04:12:40;;;;;;;21.00;10.90;;;;;;;-5.19;72.43;98772.56;107269;1256;66305;-37
2023/11/30 04:15:09;;;;;;;20.40;11.10;;;;;;;-5.24;72.61;98769.00;107309;1256;71489;-37
2023/11/30 04:17:36;;;;;;;20.80;10.90;;;;;;;-5.28;72.93;98773.70;107280;1256;60405;-37
2023/11/30 04:20:05;;;;;;;20.80;11.60;;;;;;;-5.32;72.89;98774.46;107018;1257;60389;-37
2023/11/30 04:22:33;;;;;;;20.60;10.60;;;;;;;-5.28;72.72;98781.21;106467;1256;1003498;-38
2023/11/30 04:25:00;;;;;;;19.50;11.40;;;;;;;-5.23;72.78;98784.46;107239;1257;67872;-38
2023/11/30 04:27:28;;;;;;;22.50;11.90;;;;;;;-5.25;72.93;98785.69;107267;1256;72694;-37
2023/11/30 04:29:56;;;;;;;20.30;12.00;;;;;;;-5.29;72.97;98785.61;107279;1256;60416;-38
2023/11/30 04:32:23;;;;;;;25.00;13.60;;;;;;;-5.34;73.21;98794.49;107313;1257;60843;-37
2023/11/30 04:34:51;;;;;;;21.90;11.90;;;;;;;-5.37;73.30;98792.91;107169;1256;73837;-37
2023/11/30 04:37:18;;;;;;;23.60;12.80;;;;;;;-5.38;73.70;98790.86;107251;1256;67620;-37
2023/11/30 04:39:46;;;;;;;22.00;11.30;;;;;;;-5.34;73.59;98790.79;107195;1257;71777;-37
2023/11/30 04:42:13;;;;;;;24.70;12.50;;;;;;;-5.31;73.68;98790.83;107121;1256;60431;-37
2023/11/30 04:44:41;;;;;;;22.70;12.40;;;;;;;-5.33;73.89;98789.00;107162;1255;60620;-37
2023/11/30 04:47:08;;;;;;;22.40;12.20;;;;;;;-5.36;73.89;98792.07;106390;1256;1003088;-37
2023/11/30 04:49:37;;;;;;;25.10;12.50;;;;;;;-5.37;74.28;98794.29;107143;1255;66279;-37
2023/11/30 04:52:06;;;;;;;22.40;12.30;;;;;;;-5.40;74.30;98800.95;106310;1261;1002844;-37
2023/11/30 04:54:33;;;;;;;21.80;11.30;;;;;;;-5.36;74.19;98804.64;107119;1256;61733;-37
2023/11/30 04:57:01;;;;;;;22.30;12.70;;;;;;;-5.29;74.15;98805.20;107259;1260;60319;-37
2023/11/30 04:59:28;;;;;;;21.50;12.00;;;;;;;-5.28;74.11;98806.62;107279;1257;73867;-37
2023/11/30 05:01:56;;;;;;;25.60;14.10;;;;;;;-5.31;74.16;98809.80;107227;1256;65861;-37
2023/11/30 05:04:24;;;;;;;26.80;14.10;;;;;;;-5.31;74.34;98819.78;107253;1256;72662;-37
2023/11/30 05:06:51;;;;;;;26.10;14.30;;;;;;;-5.34;74.26;98819.39;107243;1256;59767;-37
2023/11/30 05:09:19;;;;;;;31.50;15.50;;;;;;;-5.37;74.61;98823.55;106532;1256;1003500;-37
2023/11/30 05:11:47;;;;;;;23.00;13.40;;;;;;;-5.33;74.51;98826.83;106498;1256;1002861;-37
2023/11/30 05:14:14;;;;;;;25.40;13.50;;;;;;;-5.26;74.25;98834.94;107301;1256;67606;-37
2023/11/30 05:16:41;;;;;;;25.80;13.00;;;;;;;-5.27;74.47;98834.61;107280;1257;71413;-37
2023/11/30 05:19:09;;;;;;;23.80;13.10;;;;;;;-5.29;74.52;98835.63;107242;1256;60174;-37
2023/11/30 05:21:36;;;;;;;24.10;13.40;;;;;;;-5.32;74.69;98837.86;107242;1260;60437;-37
2023/11/30 05:24:05;;;;;;;25.10;13.80;;;;;;;-5.34;74.52;98840.08;107263;1256;73913;-37
2023/11/30 05:26:32;;;;;;;23.50;13.30;;;;;;;-5.34;74.67;98846.91;107274;1256;67889;-37
2023/11/30 05:29:00;;;;;;;25.90;13.00;;;;;;;-5.27;74.25;98853.65;107260;1256;73170;-37
2023/11/30 05:31:27;;;;;;;28.20;13.70;;;;;;;-5.23;74.16;98859.30;107265;1255;60940;-37
2023/11/30 05:33:54;;;;;;;25.90;14.30;;;;;;;-5.24;74.20;98858.55;107258;1258;60316;-37
2023/11/30 05:36:22;;;;;;;28.30;14.10;;;;;;;-5.26;74.17;98860.99;107260;1256;71679;-37
2023/11/30 05:38:50;;;;;;;26.10;14.90;;;;;;;-5.29;74.24;98863.11;107236;1260;67879;-37
2023/11/30 05:41:17;;;;;;;29.30;14.30;;;;;;;-5.31;74.20;98865.86;107226;1256;72633;-37
2023/11/30 05:43:45;;;;;;;27.90;14.50;;;;;;;-5.29;74.25;98869.09;107234;1256;61910;-37
2023/11/30 05:46:13;;;;;;;25.70;15.20;;;;;;;-5.24;74.11;98868.65;107264;1256;60399;-37
2023/11/30 05:48:40;;;;;;;25.50;14.80;;;;;;;-5.24;74.26;98873.88;107385;1256;72639;-37
2023/11/30 05:51:08;;;;;;;29.10;15.30;;;;;;;-5.28;74.47;98869.65;107267;1256;67685;-37
2023/11/30 05:53:36;;;;;;;28.70;15.80;;;;;;;-5.32;74.53;98869.94;107283;1256;72644;-37
2023/11/30 05:56:04;;;;;;;29.60;15.10;;;;;;;-5.33;74.65;98874.48;107280;1256;60428;-37
2023/11/30 05:58:32;;;;;;;33.00;15.80;;;;;;;-5.35;74.40;98877.13;107199;1256;60851;-37
2023/11/30 06:01:00;;;;;;;25.80;14.20;;;;;;;-5.28;74.30;98875.20;107310;1256;72531;-37
2023/11/30 06:03:27;;;;;;;24.90;14.50;;;;;;;-5.19;74.13;98884.13;107128;1256;67589;-37
2023/11/30 06:05:55;;;;;;;29.60;15.30;;;;;;;-5.18;74.09;98890.52;107086;1256;72770;-37
2023/11/30 06:08:24;;;;;;;27.20;14.90;;;;;;;-5.17;74.16;98893.88;107118;1256;60245;-37
2023/11/30 06:10:52;;;;;;;21.00;11.50;;;;;;;-5.18;74.17;98897.13;107189;1257;60320;-37
2023/11/30 06:13:24;;;;;;;31.20;14.90;;;;;;;-5.21;74.21;98907.79;107186;1256;73857;-37
2023/11/30 06:15:52;;;;;;;26.70;14.60;;;;;;;-5.20;74.23;98914.34;107201;1257;66302;-37
2023/11/30 06:18:20;;;;;;;21.20;12.30;;;;;;;-5.12;74.02;98914.17;107206;1256;72772;-37
2023/11/30 06:20:48;;;;;;;28.10;14.80;;;;;;;-5.04;73.88;98908.76;107051;1263;60326;-37
2023/11/30 06:23:15;;;;;;;29.00;15.30;;;;;;;-5.03;73.93;98916.09;107175;1256;60498;-37
2023/11/30 06:25:43;;;;;;;27.90;13.60;;;;;;;-5.05;74.01;98922.77;107194;1261;73839;-37
2023/11/30 06:28:10;;;;;;;23.30;13.60;;;;;;;-5.05;74.18;98933.40;107228;1256;67589;-37
2023/11/30 06:30:38;;;;;;;29.00;14.90;;;;;;;-5.05;74.16;98935.99;107244;1256;72635;-37
2023/11/30 06:33:06;;;;;;;28.80;15.20;;;;;;;-5.04;74.10;98937.37;107150;1256;60450;-37
2023/11/30 06:35:33;;;;;;;28.90;14.10;;;;;;;-4.96;73.90;98931.99;107213;1257;59671;-37
2023/11/30 06:38:01;;;;;;;27.30;14.40;;;;;;;-4.84;73.54;98934.92;107209;1256;72132;-37
2023/11/30 06:40:29;;;;;;;28.90;14.80;;;;;;;-4.82;73.24;98938.77;107177;1256;67574;-37
2023/11/30 06:42:56;;;;;;;29.80;15.50;;;;;;;-4.81;72.83;98941.27;106434;1256;1003088;-37
2023/11/30 06:45:24;;;;;;;25.40;14.90;;;;;;;-4.79;72.80;98947.23;107193;1257;60540;-37
2023/11/30 06:47:52;;;;;;;32.70;15.90;;;;;;;-4.78;72.98;98947.44;107235;1256;60307;-37
2023/11/30 06:50:19;;;;;;;28.40;14.90;;;;;;;-4.75;72.67;98950.13;107208;1256;73858;-37
2023/11/30 06:52:46;;;;;;;30.20;16.00;;;;;;;-4.65;72.63;98950.67;107187;1256;66790;-37
2023/11/30 06:55:14;;;;;;;30.20;15.50;;;;;;;-4.56;72.23;98949.80;107186;1256;71685;-37
2023/11/30 06:57:41;;;;;;;26.70;13.40;;;;;;;-4.52;71.93;98953.80;107243;1256;60373;-37
2023/11/30 07:00:12;;;;;;;27.10;14.40;;;;;;;-4.51;71.64;98959.04;106526;1256;1002706;-37
2023/11/30 07:02:40;;;;;;;23.90;13.50;;;;;;;-4.48;71.66;98958.39;107262;1257;73940;-37
2023/11/30 07:05:08;;;;;;;28.30;13.90;;;;;;;-4.49;71.43;98960.35;107249;1258;67578;-37
2023/11/30 07:07:35;;;;;;;25.50;13.40;;;;;;;-4.40;71.06;98969.30;107233;1260;72625;-37
2023/11/30 07:10:04;;;;;;;24.20;12.90;;;;;;;-4.27;70.65;98967.02;105733;1257;1003027;-37
2023/11/30 07:12:32;;;;;;;24.40;13.50;;;;;;;-4.17;70.17;98973.23;107163;1257;197408;-37
2023/11/30 07:17:07;;;;;;;25.10;13.00;;;;;;;-4.10;69.16;98975.04;104403;1289;599752;-37
2023/11/30 07:19:39;;;;;;;23.80;12.80;;;;;;;-4.08;69.04;98981.13;106681;1267;59316;-37
2023/11/30 07:22:06;;;;;;;21.60;11.50;;;;;;;-4.03;68.56;98982.84;106744;1267;59269;-37
2023/11/30 07:24:34;;;;;;;20.40;11.60;;;;;;;-3.96;68.45;98986.35;106732;1267;70177;-37
2023/11/30 07:27:02;;;;;;;22.30;11.70;;;;;;;-3.81;67.91;98992.35;106759;1270;67589;-37
2023/11/30 07:29:33;;;;;;;24.30;11.80;;;;;;;-3.70;67.60;98991.96;106761;1266;72718;-37
2023/11/30 07:32:01;;;;;;;20.10;11.50;;;;;;;-3.64;66.98;98992.98;106744;1263;59655;-37
2023/11/30 07:34:28;;;;;;;20.50;11.80;;;;;;;-3.57;67.29;98997.92;106872;1263;60035;-38
2023/11/30 07:36:56;;;;;;;22.40;11.60;;;;;;;-3.49;67.01;98997.64;106829;1263;71506;-37
2023/11/30 07:39:23;;;;;;;22.50;12.40;;;;;;;-3.41;66.78;99001.08;106870;1263;66598;-38
2023/11/30 07:41:51;;;;;;;19.20;11.10;;;;;;;-3.31;65.99;99001.11;106851;1265;72759;-37
2023/11/30 07:44:20;;;;;;;19.00;10.10;;;;;;;-3.22;64.97;99002.69;106100;1267;1002618;-37
2023/11/30 07:46:47;;;;;;;16.90;9.10;;;;;;;-3.13;64.93;99004.15;106755;1267;59421;-37
2023/11/30 07:49:15;;;;;;;19.10;10.00;;;;;;;-2.97;64.80;99000.30;106755;1262;73509;-37
2023/11/30 07:51:42;;;;;;;18.60;9.60;;;;;;;-2.82;64.50;99005.19;106767;1262;66663;-38
2023/11/30 07:54:09;;;;;;;18.60;10.10;;;;;;;-2.71;63.79;99003.42;106745;1263;72645;-37
2023/11/30 07:56:37;;;;;;;17.00;9.60;;;;;;;-2.57;63.73;99003.92;106772;1263;59507;-37
2023/11/30 07:59:04;;;;;;;18.20;10.60;;;;;;;-2.42;62.39;99003.65;106860;1264;59234;-36
2023/11/30 08:01:32;;;;;;;15.90;9.00;;;;;;;-2.34;62.13;99010.88;106849;1263;73043;-37
2023/11/30 08:04:00;;;;;;;16.50;9.70;;;;;;;-2.29;62.15;99016.83;106847;1262;66820;-37
2023/11/30 08:06:28;;;;;;;16.80;9.10;;;;;;;-2.26;62.10;99013.11;106862;1266;72708;-37
2023/11/30 08:08:56;;;;;;;17.20;9.90;;;;;;;-2.25;61.75;99012.83;106823;1266;59615;-37
2023/11/30 08:11:24;;;;;;;14.70;8.40;;;;;;;-2.22;61.29;99013.98;106811;1263;59061;-36
2023/11/30 08:13:51;;;;;;;17.20;9.60;;;;;;;-2.20;61.65;99018.42;106770;1263;71823;-36
2023/11/30 08:16:19;;;;;;;16.20;9.00;;;;;;;-2.18;60.94;99020.30;106775;1266;67712;-36
2023/11/30 08:18:46;;;;;;;16.10;9.90;;;;;;;-2.15;60.87;99015.55;106824;1264;72239;-36
2023/11/30 08:21:14;;;;;;;15.50;8.60;;;;;;;-2.09;61.22;99018.17;106827;1266;60067;-36
2023/11/30 08:23:43;;;;;;;15.80;9.50;;;;;;;-1.98;61.17;99015.16;106715;1264;59423;-36
2023/11/30 08:26:11;;;;;;;17.10;9.30;;;;;;;-1.82;60.28;99013.79;106826;1267;71779;-37
2023/11/30 08:28:39;;;;;;;17.30;9.30;;;;;;;-1.71;59.84;99016.98;106734;1266;67583;-36
2023/11/30 08:31:08;;;;;;;17.10;9.70;;;;;;;-1.63;59.89;99018.30;106807;1269;71394;-37
2023/11/30 08:33:36;;;;;;;12.30;7.00;;;;;;;-1.61;59.21;99019.13;106787;1264;60049;-37
2023/11/30 08:36:04;;;;;;;15.60;9.20;;;;;;;-1.63;59.10;99013.73;107095;1256;60023;-37
2023/11/30 08:38:33;;;;;;;14.60;7.10;;;;;;;-1.65;59.40;99016.33;106396;1257;1003382;-36
2023/11/30 08:41:00;;;;;;;17.20;9.80;;;;;;;-1.64;59.64;99011.57;107276;1262;66726;-38
2023/11/30 08:43:29;;;;;;;15.60;9.10;;;;;;;-1.58;59.72;99017.13;107087;1258;72682;-37
2023/11/30 08:45:56;;;;;;;19.20;10.90;;;;;;;-1.52;60.38;99015.70;107280;1256;59595;-37
2023/11/30 08:48:25;;;;;;;15.70;9.50;;;;;;;-1.45;60.69;99016.81;107076;1256;60086;-36
2023/11/30 08:50:53;;;;;;;19.30;10.00;;;;;;;-1.41;60.37;99016.54;107096;1257;73048;-37
2023/11/30 08:53:21;;;;;;;16.70;9.60;;;;;;;-1.39;60.10;99019.54;106540;1257;1002978;-37
2023/11/30 08:55:48;;;;;;;17.30;9.80;;;;;;;-1.37;60.18;99012.23;107105;1256;72680;-37
2023/11/30 08:58:16;;;;;;;19.10;9.80;;;;;;;-1.37;59.06;99012.17;107294;1256;59685;-37
2023/11/30 09:00:43;;;;;;;16.70;9.80;;;;;;;-1.41;58.83;99008.72;107319;1256;59406;-37
2023/11/30 09:03:11;;;;;;;16.40;9.10;;;;;;;-1.43;59.28;99002.90;107261;1256;73072;-37
2023/11/30 09:05:40;;;;;;;14.20;8.30;;;;;;;-1.42;60.01;98996.46;107209;1256;67569;-37
2023/11/30 09:08:08;;;;;;;17.20;9.40;;;;;;;-1.36;59.93;98997.37;107069;1257;72662;-37
2023/11/30 09:10:36;;;;;;;19.40;9.70;;;;;;;-1.29;59.09;98996.95;107220;1256;60089;-37
2023/11/30 09:13:05;;;;;;;17.60;9.10;;;;;;;-1.24;58.73;99000.74;107272;1256;59497;-37
2023/11/30 09:15:33;;;;;;;15.80;8.80;;;;;;;-1.21;58.84;98996.02;107332;1256;71764;-37
2023/11/30 09:18:03;;;;;;;14.40;7.90;;;;;;;-1.18;58.43;98990.98;107222;1256;67604;-38
2023/11/30 09:20:31;;;;;;;16.50;8.50;;;;;;;-1.15;57.99;98987.36;107146;1256;72512;-38
2023/11/30 09:22:58;;;;;;;14.80;7.40;;;;;;;-1.08;57.89;98985.11;106345;1256;1002851;-38
2023/11/30 09:25:26;;;;;;;15.20;7.90;;;;;;;-0.98;57.12;98983.67;107139;1256;59747;-38
2023/11/30 09:27:54;;;;;;;13.40;7.40;;;;;;;-0.91;57.42;98983.71;107247;1257;73340;-37
2023/11/30 09:30:21;;;;;;;15.30;7.90;;;;;;;-0.84;56.83;98985.02;106459;1261;1003472;-35
2023/11/30 09:32:52;;;;;;;13.30;7.60;;;;;;;-0.74;56.96;98985.68;106474;1257;1003898;-36
2023/11/30 09:35:20;;;;;;;14.70;7.80;;;;;;;-0.58;56.53;98989.02;107238;1260;59496;-36
2023/11/30 09:37:48;;;;;;;13.20;7.50;;;;;;;-0.44;56.38;98983.57;107219;1257;60060;-37
2023/11/30 09:40:16;;;;;;;16.20;7.90;;;;;;;-0.29;56.56;98986.91;106501;1256;1003011;-37
2023/11/30 09:42:45;;;;;;;12.30;6.90;;;;;;;-0.18;55.83;98983.64;107220;1256;68339;-37
2023/11/30 09:45:13;;;;;;;14.90;7.60;;;;;;;-0.13;54.94;98982.62;107202;1256;73034;-36
2023/11/30 09:47:40;;;;;;;13.60;6.60;;;;;;;-0.14;54.98;98975.23;107201;1261;59630;-37
2023/11/30 09:50:08;;;;;;;13.10;7.20;;;;;;;-0.16;55.06;98979.13;107183;1256;62144;-37
2023/11/30 09:52:37;;;;;;;13.00;6.50;;;;;;;-0.11;55.28;98981.14;107092;1262;73161;-37
2023/11/30 09:55:08;;;;;;;12.70;6.70;;;;;;;-0.03;55.40;98983.75;107131;1256;65294;-37
2023/11/30 09:57:39;;;;;;;12.40;7.30;;;;;;;0.03;55.13;98988.95;107240;1256;72718;-38
2023/11/30 10:00:09;;;;;;;11.70;7.20;;;;;;;0.04;55.38;98987.25;107168;1262;59689;-38
2023/11/30 10:02:37;;;;;;;12.80;6.90;;;;;;;0.04;55.87;98984.15;107249;1256;60017;-36
2023/11/30 10:05:06;;;;;;;16.00;7.80;;;;;;;0.08;55.46;98999.20;107206;1256;73602;-37
2023/11/30 10:07:35;;;;;;;11.90;7.10;;;;;;;0.12;55.43;99000.27;107217;1256;70029;-37
2023/11/30 10:10:07;;;;;;;14.20;6.50;;;;;;;0.17;55.23;98996.20;107219;1261;72825;-37
2023/11/30 10:12:34;;;;;;;16.20;7.30;;;;;;;0.24;55.40;98993.36;107173;1257;59494;-37
2023/11/30 10:15:02;;;;;;;11.70;6.90;;;;;;;0.31;55.20;98994.79;107270;1257;62016;-37
2023/11/30 10:17:30;;;;;;;13.20;7.30;;;;;;;0.36;54.31;98995.21;107355;1257;73191;-36
2023/11/30 10:19:58;;;;;;;14.50;7.90;;;;;;;0.41;54.51;98991.30;107302;1256;67560;-36
2023/11/30 10:22:26;;;;;;;12.40;7.10;;;;;;;0.51;54.75;98992.64;107279;1256;73111;-36
2023/11/30 10:24:53;;;;;;;11.90;7.10;;;;;;;0.66;54.95;98992.05;107252;1258;59649;-37
2023/11/30 10:27:22;;;;;;;11.70;7.30;;;;;;;0.83;54.02;98988.14;107293;1257;60015;-36
2023/11/30 10:29:51;;;;;;;13.60;7.60;;;;;;;0.96;53.67;98986.21;107375;1257;71775;-36
2023/11/30 10:32:18;;;;;;;15.00;7.80;;;;;;;1.05;53.48;98988.23;107336;1257;66302;-36
2023/11/30 10:34:48;;;;;;;11.20;7.00;;;;;;;1.12;53.46;98985.05;107124;1256;74891;-36
2023/11/30 10:37:20;;;;;;;14.30;7.10;;;;;;;1.26;53.06;98985.39;107312;1257;59597;-36
2023/11/30 10:39:52;;;;;;;13.90;7.30;;;;;;;1.40;52.84;98981.49;107338;1256;60012;-37
2023/11/30 10:42:19;;;;;;;11.20;7.20;;;;;;;1.50;52.16;98983.27;107251;1255;71734;-37
2023/11/30 10:44:48;;;;;;;14.40;7.00;;;;;;;1.56;52.22;98985.43;107080;1256;66776;-37
2023/11/30 10:47:15;;;;;;;11.40;7.30;;;;;;;1.64;52.30;98982.49;107340;1257;71534;-37
2023/11/30 10:49:43;;;;;;;10.20;6.60;;;;;;;1.72;52.09;98987.63;106975;1255;59590;-37
2023/11/30 10:52:10;;;;;;;11.10;7.00;;;;;;;1.84;51.55;98986.11;107139;1255;60059;-37
2023/11/30 10:54:51;;;;;;;11.80;7.40;;;;;;;1.94;51.89;98983.71;107246;1254;71899;-38
2023/11/30 10:57:19;;;;;;;10.10;6.80;;;;;;;2.05;50.73;98987.95;107278;1259;67775;-37
2023/11/30 10:59:49;;;;;;;9.80;6.30;;;;;;;2.09;49.60;98983.61;107212;1260;71817;-37
2023/11/30 11:02:17;;;;;;;9.80;5.70;;;;;;;2.12;50.19;98989.12;106479;1260;1002965;-37
2023/11/30 11:04:46;;;;;;;10.20;6.20;;;;;;;2.18;50.18;98985.80;107298;1254;60027;-38
2023/11/30 11:07:14;;;;;;;10.90;6.40;;;;;;;2.22;49.23;98984.52;107139;1262;72812;-38
2023/11/30 11:09:53;;;;;;;10.50;6.10;;;;;;;2.25;49.37;98978.85;107226;1254;67736;-38
2023/11/30 11:12:25;;;;;;;9.60;6.10;;;;;;;2.39;49.95;98978.92;107080;1257;73307;-38
2023/11/30 11:15:08;;;;;;;9.20;5.70;;;;;;;2.55;49.58;98984.78;107250;1260;59615;-38
2023/11/30 11:17:49;;;;;;;8.10;5.60;;;;;;;2.67;49.12;98981.40;107316;1259;60019;-38